createdAt,value
2022-11-22T00:00:25.732Z,19.83
2022-11-22T00:02:30.627Z,19.20
2022-11-22T00:04:35.864Z,20.55
2022-11-22T00:06:41.121Z,17.45
2022-11-22T00:08:45.545Z,18.40
2022-11-22T00:10:52.516Z,19.33
2022-11-22T00:12:57.139Z,18.00
2022-11-22T00:15:02.177Z,17.50
2022-11-22T00:17:09.061Z,18.70
2022-11-22T00:19:13.597Z,18.80
2022-11-22T00:21:17.875Z,18.30
2022-11-22T00:23:22.770Z,16.77
2022-11-22T00:25:27.413Z,18.52
2022-11-22T00:27:33.971Z,19.42
2022-11-22T00:29:39.250Z,20.02
2022-11-22T00:31:44.165Z,20.25
2022-11-22T00:33:48.707Z,20.13
2022-11-22T00:35:53.309Z,19.17
2022-11-22T00:37:57.663Z,20.45
2022-11-22T00:40:02.448Z,20.27
2022-11-22T00:42:11.154Z,20.23
2022-11-22T00:44:17.379Z,20.27
2022-11-22T00:46:21.789Z,20.92
2022-11-22T00:48:26.053Z,21.70
2022-11-22T00:50:33.330Z,20.95
2022-11-22T00:52:37.927Z,21.63
2022-11-22T00:54:42.273Z,21.52
2022-11-22T00:56:46.872Z,22.05
2022-11-22T00:58:53.732Z,22.60
2022-11-22T01:00:59.444Z,22.33
2022-11-22T01:03:03.957Z,23.45
2022-11-22T01:05:09.148Z,22.70
2022-11-22T01:07:13.808Z,21.98
2022-11-22T01:09:20.470Z,21.48
2022-11-22T01:11:25.217Z,22.48
2022-11-22T01:13:31.547Z,21.17
2022-11-22T01:15:37.024Z,23.13
2022-11-22T01:17:42.830Z,21.55
2022-11-22T01:19:47.925Z,22.63
2022-11-22T01:21:52.485Z,21.48
2022-11-22T01:23:58.172Z,21.17
2022-11-22T01:26:02.511Z,21.15
2022-11-22T01:28:07.000Z,22.40
2022-11-22T01:30:12.116Z,21.75
2022-11-22T01:32:16.521Z,21.58
2022-11-22T01:34:23.092Z,21.67
2022-11-22T01:36:27.365Z,21.92
2022-11-22T01:38:32.684Z,20.98
2022-11-22T01:40:37.315Z,21.33
2022-11-22T01:42:45.233Z,21.25
2022-11-22T01:44:52.606Z,20.92
2022-11-22T01:47:00.701Z,21.10
2022-11-22T01:49:08.184Z,21.33
2022-11-22T01:51:21.371Z,20.75
2022-11-22T01:53:29.816Z,21.58
2022-11-22T01:55:34.930Z,21.80
2022-11-22T01:57:42.318Z,19.92
2022-11-22T01:59:51.894Z,19.13
2022-11-22T02:01:57.195Z,19.33
2022-11-22T02:04:06.077Z,21.52
2022-11-22T02:06:11.010Z,19.13
2022-11-22T02:08:24.568Z,19.23
2022-11-22T02:10:33.752Z,19.90
2022-11-22T02:12:38.670Z,20.97
2022-11-22T02:14:43.505Z,21.17
2022-11-22T02:16:49.412Z,19.85
2022-11-22T02:18:54.315Z,19.95
2022-11-22T02:20:59.965Z,19.70
2022-11-22T02:23:10.603Z,20.45
2022-11-22T02:25:23.701Z,20.48
2022-11-22T02:27:29.908Z,22.60
2022-11-22T02:29:35.112Z,20.55
2022-11-22T02:31:44.074Z,22.20
2022-11-22T02:33:51.732Z,20.98
2022-11-22T02:35:56.852Z,21.10
2022-11-22T02:38:05.009Z,20.80
2022-11-22T02:40:13.292Z,22.25
2022-11-22T02:42:19.062Z,24.40
2022-11-22T02:44:25.734Z,23.48
2022-11-22T02:46:30.262Z,21.25
2022-11-22T02:48:34.578Z,22.60
2022-11-22T02:50:39.816Z,22.67
2022-11-22T02:52:44.256Z,21.83
2022-11-22T02:54:49.585Z,21.60
2022-11-22T02:57:11.152Z,21.25
2022-11-22T02:59:22.621Z,20.88
2022-11-22T03:01:28.686Z,21.80
2022-11-22T03:03:34.772Z,19.70
2022-11-22T03:05:39.533Z,20.35
2022-11-22T03:07:43.722Z,20.52
2022-11-22T03:09:48.024Z,20.88
2022-11-22T03:11:52.637Z,19.55
2022-11-22T03:13:56.963Z,18.65
2022-11-22T03:16:02.771Z,17.75
2022-11-22T03:18:08.776Z,19.90
2022-11-22T03:20:14.199Z,17.58
2022-11-22T03:22:18.434Z,19.35
2022-11-22T03:24:22.873Z,18.75
2022-11-22T03:26:28.155Z,19.05
2022-11-22T03:28:33.523Z,20.45
2022-11-22T03:30:42.227Z,19.73
2022-11-22T03:32:46.800Z,19.38
2022-11-22T03:34:52.751Z,20.38
2022-11-22T03:36:57.164Z,19.05
2022-11-22T03:39:01.786Z,19.15
2022-11-22T03:41:06.324Z,21.40
2022-11-22T03:43:10.810Z,20.98
2022-11-22T03:45:15.946Z,21.00
2022-11-22T03:47:22.204Z,19.63
2022-11-22T03:49:26.494Z,19.95
2022-11-22T03:51:32.818Z,19.08
2022-11-22T03:53:37.201Z,19.73
2022-11-22T03:55:41.616Z,20.73
2022-11-22T03:57:46.420Z,20.85
2022-11-22T03:59:51.244Z,20.35
2022-11-22T04:01:57.414Z,19.45
2022-11-22T04:04:03.201Z,20.67
2022-11-22T04:06:07.664Z,20.73
2022-11-22T04:08:15.084Z,18.77
2022-11-22T04:10:22.385Z,19.67
2022-11-22T04:12:26.911Z,19.45
2022-11-22T04:14:48.369Z,20.38
2022-11-22T04:16:53.105Z,19.25
2022-11-22T04:19:00.032Z,20.92
2022-11-22T04:21:21.897Z,20.25
2022-11-22T04:23:33.842Z,20.38
2022-11-22T04:25:40.224Z,19.83
2022-11-22T04:27:44.769Z,19.65
2022-11-22T04:29:49.890Z,22.40
2022-11-22T04:32:11.549Z,21.52
2022-11-22T04:34:15.942Z,21.45
2022-11-22T04:36:20.566Z,21.90
2022-11-22T04:38:27.449Z,22.63
2022-11-22T04:40:32.064Z,22.35
2022-11-22T04:43:13.316Z,20.55
2022-11-22T04:45:17.670Z,21.45
2022-11-22T04:47:39.333Z,21.48
2022-11-22T04:49:43.941Z,21.58
2022-11-22T04:52:06.488Z,20.23
2022-11-22T04:54:12.388Z,20.17
2022-11-22T04:56:17.259Z,21.65
2022-11-22T04:58:22.251Z,19.88
2022-11-22T05:00:27.666Z,20.38
2022-11-22T05:02:32.136Z,17.13
2022-11-22T05:04:36.492Z,24.17
2022-11-22T05:06:42.505Z,19.58
2022-11-22T05:08:46.885Z,21.30
2022-11-22T05:10:58.445Z,20.30
2022-11-22T05:13:04.272Z,20.33
2022-11-22T05:15:09.765Z,18.95
2022-11-22T05:17:14.091Z,18.65
2022-11-22T05:19:18.357Z,19.95
2022-11-22T05:21:23.002Z,18.65
2022-11-22T05:23:45.059Z,17.15
2022-11-22T05:25:52.345Z,18.00
2022-11-22T05:27:58.204Z,17.42
2022-11-22T05:30:02.756Z,18.02
2022-11-22T05:32:07.771Z,18.02
2022-11-22T05:34:11.995Z,17.75
2022-11-22T05:36:16.474Z,16.42
2022-11-22T05:38:21.397Z,16.35
2022-11-22T05:40:26.013Z,16.80
2022-11-22T05:42:31.828Z,17.52
2022-11-22T05:44:36.643Z,17.23
2022-11-22T05:46:40.965Z,17.95
2022-11-22T05:48:47.996Z,19.77
2022-11-22T05:50:52.269Z,17.23
2022-11-22T05:52:57.038Z,17.77
2022-11-22T05:55:06.525Z,17.95
2022-11-22T05:57:10.771Z,18.67
2022-11-22T05:59:16.489Z,17.92
2022-11-22T06:01:23.049Z,19.38
2022-11-22T06:03:32.537Z,19.35
2022-11-22T06:05:37.413Z,20.60
2022-11-22T06:07:41.988Z,19.63
2022-11-22T06:09:46.342Z,20.00
2022-11-22T06:11:50.888Z,19.88
2022-11-22T06:14:00.494Z,21.63
2022-11-22T06:16:07.283Z,21.30
2022-11-22T06:18:12.000Z,20.73
2022-11-22T06:20:18.018Z,20.52
2022-11-22T06:22:22.684Z,20.45
2022-11-22T06:24:27.975Z,19.95
2022-11-22T06:26:38.844Z,19.92
2022-11-22T06:28:49.499Z,19.85
2022-11-22T06:30:55.357Z,20.40
2022-11-22T06:33:01.667Z,20.55
2022-11-22T06:35:06.496Z,20.05
2022-11-22T06:37:12.257Z,20.55
2022-11-22T06:39:18.093Z,19.38
2022-11-22T06:41:24.981Z,20.60
2022-11-22T06:43:30.503Z,21.60
2022-11-22T06:45:38.511Z,20.25
2022-11-22T06:47:47.039Z,20.42
2022-11-22T06:49:54.374Z,20.02
2022-11-22T06:52:01.745Z,20.88
2022-11-22T06:54:06.793Z,25.30
2022-11-22T06:56:14.665Z,26.58
2022-11-22T06:58:19.839Z,35.45
2022-11-22T07:00:25.253Z,31.42
2022-11-22T07:02:33.559Z,28.42
2022-11-22T07:05:02.178Z,27.17
2022-11-22T07:07:11.295Z,23.10
2022-11-22T07:09:16.072Z,20.15
2022-11-22T07:11:22.912Z,21.67
2022-11-22T07:13:28.827Z,20.75
2022-11-22T07:15:33.714Z,20.40
2022-11-22T07:17:38.939Z,22.15
2022-11-22T07:19:44.435Z,20.98
2022-11-22T07:21:49.985Z,20.52
2022-11-22T07:23:58.214Z,20.75
2022-11-22T07:26:03.126Z,20.83
2022-11-22T07:28:09.542Z,22.83
2022-11-22T07:30:15.948Z,21.85
2022-11-22T07:32:21.935Z,21.15
2022-11-22T07:34:27.714Z,21.70
2022-11-22T07:36:38.876Z,21.50
2022-11-22T07:38:45.936Z,22.80
2022-11-22T07:40:52.296Z,22.70
2022-11-22T07:42:59.267Z,22.90
2022-11-22T07:45:05.723Z,23.38
2022-11-22T07:47:10.855Z,23.95
2022-11-22T07:49:15.512Z,23.83
2022-11-22T07:51:21.316Z,22.90
2022-11-22T07:53:27.116Z,23.25
2022-11-22T07:55:34.355Z,22.33
2022-11-22T07:57:41.328Z,23.25
2022-11-22T07:59:46.214Z,23.33
2022-11-22T08:01:51.662Z,23.02
2022-11-22T08:03:56.766Z,22.85
2022-11-22T08:06:08.135Z,23.35
2022-11-22T08:08:12.933Z,24.42
2022-11-22T08:10:18.014Z,22.38
2022-11-22T08:12:22.335Z,22.13
2022-11-22T08:14:30.393Z,25.55
2022-11-22T08:16:34.772Z,24.02
2022-11-22T08:18:43.177Z,25.15
2022-11-22T08:20:49.271Z,24.27
2022-11-22T08:22:54.194Z,24.38
2022-11-22T08:24:59.358Z,23.35
2022-11-22T08:27:05.044Z,25.35
2022-11-22T08:29:14.349Z,23.05
2022-11-22T08:31:21.953Z,23.83
2022-11-22T08:33:26.685Z,23.85
2022-11-22T08:35:33.559Z,27.05
2022-11-22T08:37:41.488Z,24.02
2022-11-22T08:39:48.951Z,23.98
2022-11-22T08:41:57.338Z,23.92
2022-11-22T08:44:04.214Z,26.30
2022-11-22T08:46:11.169Z,23.90
2022-11-22T08:48:22.074Z,24.20
2022-11-22T08:50:29.034Z,23.02
2022-11-22T08:52:36.420Z,22.80
2022-11-22T08:54:42.313Z,23.67
2022-11-22T08:56:49.564Z,22.23
2022-11-22T08:58:55.202Z,23.10
2022-11-22T09:01:04.857Z,23.95
2022-11-22T09:03:11.017Z,22.23
2022-11-22T09:05:23.019Z,22.70
2022-11-22T09:10:06.251Z,23.20
2022-11-22T09:12:12.667Z,23.20
2022-11-22T09:14:19.235Z,24.05
2022-11-22T09:16:24.284Z,23.60
2022-11-22T09:18:28.978Z,24.95
2022-11-22T09:20:35.297Z,23.15
2022-11-22T09:22:55.585Z,24.45
2022-11-22T09:25:05.788Z,23.92
2022-11-22T09:27:11.084Z,23.37
2022-11-22T09:29:17.697Z,22.63
2022-11-22T09:31:27.074Z,24.58
2022-11-22T09:33:39.908Z,23.67
2022-11-22T09:35:46.926Z,24.52
2022-11-22T09:38:06.438Z,22.70
2022-11-22T09:46:29.726Z,24.30
2022-11-22T09:52:14.166Z,25.75
2022-11-22T09:59:24.142Z,23.88
2022-11-22T10:02:18.362Z,24.75
2022-11-22T10:07:28.097Z,23.67
2022-11-22T10:09:45.717Z,24.77
2022-11-22T10:12:09.584Z,25.60
2022-11-22T10:14:48.330Z,25.77
2022-11-22T10:20:09.034Z,23.02
2022-11-22T10:22:15.113Z,23.67
2022-11-22T10:24:20.634Z,25.80
2022-11-22T10:26:41.476Z,26.70
2022-11-22T10:28:56.390Z,24.95
2022-11-22T10:31:10.453Z,27.67
2022-11-22T10:33:22.020Z,26.45
2022-11-22T10:35:54.684Z,25.77
2022-11-22T10:38:09.328Z,26.45
2022-11-22T10:40:26.314Z,26.15
2022-11-22T10:42:59.090Z,26.17
2022-11-22T10:45:08.422Z,27.10
2022-11-22T10:47:33.002Z,26.95
2022-11-22T10:49:56.028Z,26.23
2022-11-22T10:52:11.512Z,27.08
2022-11-22T10:54:21.535Z,25.90
2022-11-22T10:58:43.247Z,26.17
2022-11-22T11:00:59.975Z,25.88
2022-11-22T11:03:26.091Z,27.08
2022-11-22T11:05:37.512Z,25.88
2022-11-22T11:08:29.671Z,25.75
2022-11-22T11:10:40.590Z,26.20
2022-11-22T11:12:50.099Z,25.65
2022-11-22T11:15:08.639Z,25.17
2022-11-22T11:17:18.500Z,25.65
2022-11-22T11:19:30.052Z,26.33
2022-11-22T11:21:34.380Z,26.25
2022-11-22T11:23:41.163Z,26.40
2022-11-22T11:25:47.516Z,27.20
2022-11-22T11:27:53.316Z,26.65
2022-11-22T11:30:02.910Z,26.67
2022-11-22T11:32:13.534Z,27.10
2022-11-22T11:34:24.243Z,27.08
2022-11-22T11:36:34.256Z,26.50
2022-11-22T11:38:51.810Z,26.92
2022-11-22T11:40:56.709Z,27.27
2022-11-22T11:43:22.201Z,27.73
2022-11-22T11:45:33.155Z,27.42
2022-11-22T11:47:37.818Z,27.75
2022-11-22T11:49:52.863Z,27.15
2022-11-22T11:52:03.393Z,27.27
2022-11-22T11:54:17.482Z,27.48
2022-11-22T11:56:46.506Z,29.92
2022-11-22T11:58:57.322Z,28.38
2022-11-22T12:01:02.332Z,30.40
2022-11-22T12:03:13.863Z,28.63
2022-11-22T12:05:28.951Z,30.88
2022-11-22T12:07:44.618Z,28.70
2022-11-22T12:09:52.821Z,28.35
2022-11-22T12:12:04.499Z,30.05
2022-11-22T12:14:20.243Z,29.45
2022-11-22T12:16:31.308Z,30.02
2022-11-22T12:18:44.616Z,29.67
2022-11-22T12:20:59.304Z,28.08
2022-11-22T12:23:20.731Z,30.23
2022-11-22T12:25:33.945Z,29.65
2022-11-22T12:27:38.450Z,28.55
2022-11-22T12:29:45.186Z,27.70
2022-11-22T12:31:54.213Z,29.75
2022-11-22T12:34:03.484Z,29.88
2022-11-22T12:36:16.525Z,29.17
2022-11-22T12:38:25.525Z,29.77
2022-11-22T12:40:44.520Z,28.05
2022-11-22T12:42:51.819Z,27.00
2022-11-22T12:45:00.605Z,26.48
2022-11-22T12:47:10.288Z,27.13
2022-11-22T12:49:25.635Z,27.52
2022-11-22T12:51:37.495Z,30.13
2022-11-22T12:53:47.402Z,26.77
2022-11-22T12:56:00.336Z,26.75
2022-11-22T12:58:16.421Z,26.35
2022-11-22T13:00:23.412Z,23.92
2022-11-22T13:02:33.700Z,26.30
2022-11-22T13:04:47.743Z,25.95
2022-11-22T13:06:56.480Z,26.77
2022-11-22T13:09:04.655Z,28.40
2022-11-22T13:11:16.726Z,28.52
2022-11-22T13:13:27.153Z,27.25
2022-11-22T13:15:33.924Z,28.13
2022-11-22T13:17:39.384Z,28.15
2022-11-22T13:19:51.773Z,28.30
2022-11-22T13:22:10.580Z,27.02
2022-11-22T13:24:37.480Z,28.73
2022-11-22T13:26:55.306Z,26.45
2022-11-22T13:29:16.871Z,26.75
2022-11-22T13:31:21.839Z,27.90
2022-11-22T13:33:28.149Z,25.65
2022-11-22T13:35:34.870Z,29.00
2022-11-22T13:37:43.447Z,29.55
2022-11-22T13:39:51.633Z,29.98
2022-11-22T13:42:04.765Z,31.33
2022-11-22T13:44:27.316Z,30.27
2022-11-22T13:47:03.419Z,32.10
2022-11-22T13:49:15.705Z,30.15
2022-11-22T13:51:54.485Z,31.90
2022-11-22T13:54:39.840Z,32.47
2022-11-22T13:57:01.838Z,32.53
2022-11-22T13:59:16.372Z,32.00
2022-11-22T14:01:58.012Z,30.58
2022-11-22T14:04:21.621Z,31.08
2022-11-22T14:06:33.582Z,27.48
2022-11-22T14:08:41.777Z,30.25
2022-11-22T14:11:18.142Z,30.10
2022-11-22T14:13:41.401Z,29.67
2022-11-22T14:16:23.461Z,31.45
2022-11-22T14:18:58.700Z,30.98
2022-11-22T14:21:53.908Z,30.77
2022-11-22T14:24:07.146Z,31.77
2022-11-22T14:26:21.332Z,32.58
2022-11-22T14:29:00.857Z,31.85
2022-11-22T14:31:15.788Z,31.80
2022-11-22T14:33:23.029Z,33.92
2022-11-22T14:35:35.365Z,32.38
2022-11-22T14:37:48.676Z,32.58
2022-11-22T14:40:17.667Z,32.78
2022-11-22T14:42:48.380Z,35.17
2022-11-22T14:44:55.442Z,33.92
2022-11-22T14:47:08.013Z,33.40
2022-11-22T14:49:17.812Z,35.55
2022-11-22T14:51:32.074Z,35.75
2022-11-22T14:53:40.567Z,35.80
2022-11-22T14:55:45.698Z,34.58
2022-11-22T14:57:59.836Z,32.80
2022-11-22T15:00:17.938Z,35.33
2022-11-22T15:03:07.882Z,33.60
2022-11-22T15:09:13.165Z,35.55
2022-11-22T15:09:23.398Z,35.78
2022-11-22T15:11:00.238Z,36.25
2022-11-22T15:13:28.027Z,36.78
2022-11-22T15:58:25.931Z,36.17
2022-11-22T16:00:31.291Z,35.22
2022-11-22T16:02:48.917Z,36.75
2022-11-22T16:06:06.775Z,37.05
2022-11-22T16:07:30.139Z,39.85
2022-11-22T16:09:38.905Z,40.85
2022-11-22T16:11:43.571Z,38.67
2022-11-22T16:13:49.174Z,38.30
2022-11-22T16:16:07.771Z,38.10
2022-11-22T16:18:23.491Z,38.75
2022-11-22T16:20:32.422Z,38.95
2022-11-22T16:22:39.149Z,36.78
2022-11-22T16:24:43.705Z,40.08
2022-11-22T16:26:58.664Z,36.97
2022-11-22T16:29:26.280Z,36.75
2022-11-22T16:31:33.479Z,36.70
2022-11-22T16:33:40.926Z,37.55
2022-11-22T16:35:47.382Z,39.47
2022-11-22T16:37:51.970Z,44.78
2022-11-22T16:39:56.781Z,53.65
2022-11-22T16:42:01.670Z,71.25
2022-11-22T16:44:13.186Z,49.20
2022-11-22T16:46:18.794Z,44.92
2022-11-22T16:48:33.978Z,51.97
2022-11-22T16:50:42.095Z,56.88
2022-11-22T16:52:47.715Z,49.58
2022-11-22T16:54:52.939Z,46.58
2022-11-22T16:56:58.113Z,45.33
2022-11-22T16:59:06.547Z,41.50
2022-11-22T17:01:17.403Z,43.72
2022-11-22T17:03:24.575Z,40.88
2022-11-22T17:05:29.660Z,43.88
2022-11-22T17:07:36.654Z,42.13
2022-11-22T17:09:41.564Z,40.90
2022-11-22T17:11:48.291Z,40.72
2022-11-22T17:13:54.414Z,41.30
2022-11-22T17:15:59.354Z,41.78
2022-11-22T17:18:05.084Z,40.63
2022-11-22T17:20:10.452Z,42.40
2022-11-22T17:22:16.822Z,42.90
2022-11-22T17:24:24.072Z,41.83
2022-11-22T17:26:29.310Z,41.78
2022-11-22T17:28:35.363Z,44.30
2022-11-22T17:30:40.204Z,42.53
2022-11-22T17:32:44.608Z,43.25
2022-11-22T17:34:49.232Z,41.63
2022-11-22T17:36:54.808Z,41.90
2022-11-22T17:39:02.665Z,43.03
2022-11-22T17:41:09.601Z,41.95
2022-11-22T17:43:14.970Z,41.65
2022-11-22T17:45:19.304Z,40.80
2022-11-22T17:47:23.795Z,41.85
2022-11-22T17:49:29.218Z,39.55
2022-11-22T17:51:36.326Z,39.55
2022-11-22T17:53:41.005Z,39.53
2022-11-22T17:56:09.523Z,38.88
2022-11-22T17:58:11.598Z,38.13
2022-11-22T18:00:17.608Z,37.13
2022-11-22T18:02:22.076Z,37.20
2022-11-22T18:04:27.771Z,39.55
2022-11-22T18:06:32.264Z,37.30
2022-11-22T18:08:50.960Z,36.70
2022-11-22T18:10:58.721Z,38.67
2022-11-22T18:13:20.772Z,42.28
2022-11-22T18:15:27.999Z,43.58
2022-11-22T18:17:36.757Z,37.30
2022-11-22T18:19:41.540Z,47.45
2022-11-22T18:21:47.814Z,44.72
2022-11-22T18:23:53.193Z,37.50
2022-11-22T18:26:42.503Z,40.38
2022-11-22T18:29:02.455Z,36.63
2022-11-22T18:31:12.854Z,33.17
2022-11-22T18:33:18.611Z,34.42
2022-11-22T18:35:23.853Z,32.22
2022-11-22T18:37:28.104Z,30.30
2022-11-22T18:39:34.543Z,31.52
2022-11-22T18:41:40.022Z,29.67
2022-11-22T18:43:44.502Z,32.28
2022-11-22T18:45:48.797Z,33.10
2022-11-22T18:47:54.506Z,31.63
2022-11-22T18:49:59.526Z,32.35
2022-11-22T18:52:04.454Z,30.20
2022-11-22T18:54:11.334Z,31.00
2022-11-22T18:56:17.383Z,29.13
2022-11-22T18:58:21.817Z,29.60
2022-11-22T19:00:26.676Z,29.65
2022-11-22T19:02:31.428Z,30.70
2022-11-22T19:04:37.305Z,27.88
2022-11-22T19:06:42.296Z,28.17
2022-11-22T19:08:48.644Z,27.67
2022-11-22T19:10:58.400Z,29.05
2022-11-22T19:13:03.615Z,26.42
2022-11-22T19:15:09.340Z,25.90
2022-11-22T19:17:18.588Z,25.13
2022-11-22T19:19:27.115Z,27.65
2022-11-22T19:21:34.355Z,28.33
2022-11-22T19:23:40.271Z,30.35
2022-11-22T19:25:46.091Z,26.67
2022-11-22T19:27:50.568Z,29.42
2022-11-22T19:29:56.222Z,27.48
2022-11-22T19:32:01.313Z,31.08
2022-11-22T19:34:06.745Z,27.40
2022-11-22T19:36:14.601Z,29.77
2022-11-22T19:38:22.238Z,32.42
2022-11-22T19:40:26.870Z,32.25
2022-11-22T19:42:33.764Z,31.40
2022-11-22T19:44:38.998Z,37.00
2022-11-22T19:46:46.390Z,30.42
2022-11-22T19:48:54.557Z,32.65
2022-11-22T19:51:01.341Z,32.90
2022-11-22T19:53:07.157Z,38.50
2022-11-22T19:55:13.789Z,32.17
2022-11-22T19:57:18.372Z,40.00
2022-11-22T19:59:22.715Z,40.80
2022-11-22T20:01:28.724Z,38.05
2022-11-22T20:03:33.585Z,36.50
2022-11-22T20:05:38.873Z,36.28
2022-11-22T20:07:47.325Z,40.75
2022-11-22T20:09:55.089Z,38.92
2022-11-22T20:12:04.615Z,36.83
2022-11-22T20:14:11.242Z,37.15
2022-11-22T20:16:21.252Z,37.22
2022-11-22T20:18:28.032Z,32.88
2022-11-22T20:20:38.116Z,33.92
2022-11-22T20:22:47.153Z,33.92
2022-11-22T20:24:57.397Z,32.70
2022-11-22T20:27:19.206Z,31.50
2022-11-22T20:29:30.792Z,33.53
2022-11-22T20:31:38.074Z,35.55
2022-11-22T20:33:46.288Z,32.67
2022-11-22T20:35:56.103Z,35.30
2022-11-22T20:38:03.920Z,33.72
2022-11-22T20:40:15.175Z,39.70
2022-11-22T20:42:34.197Z,34.92
2022-11-22T20:44:42.104Z,34.42
2022-11-22T20:46:49.059Z,35.17
2022-11-22T20:49:08.380Z,32.45
2022-11-22T20:51:17.034Z,30.65
2022-11-22T20:53:36.346Z,32.88
2022-11-22T20:55:43.381Z,32.42
2022-11-22T20:57:51.328Z,29.80
2022-11-22T20:59:56.045Z,31.95
2022-11-22T21:02:02.964Z,26.77
2022-11-22T21:04:12.158Z,27.90
2022-11-22T21:06:17.995Z,30.45
2022-11-22T21:08:23.947Z,27.67
2022-11-22T21:10:30.362Z,32.47
2022-11-22T21:12:35.009Z,29.08
2022-11-22T21:14:40.844Z,30.65
2022-11-22T21:16:45.436Z,30.10
2022-11-22T21:18:52.164Z,30.65
2022-11-22T21:21:02.856Z,27.13
2022-11-22T21:23:07.306Z,26.42
2022-11-22T21:25:12.209Z,32.50
2022-11-22T21:27:16.993Z,27.90
2022-11-22T21:29:21.756Z,26.90
2022-11-22T21:31:31.334Z,28.48
2022-11-22T21:33:38.085Z,34.33
2022-11-22T21:35:45.791Z,30.13
2022-11-22T21:37:54.877Z,32.97
2022-11-22T21:39:59.841Z,31.27
2022-11-22T21:42:04.268Z,32.33
2022-11-22T21:44:08.722Z,31.83
2022-11-22T21:46:13.317Z,32.38
2022-11-22T21:48:19.625Z,31.60
2022-11-22T21:50:25.310Z,31.00
2022-11-22T21:52:29.523Z,31.65
2022-11-22T21:54:34.217Z,31.20
2022-11-22T21:56:38.859Z,28.65
2022-11-22T21:58:44.287Z,31.48
2022-11-22T22:00:50.139Z,30.63
2022-11-22T22:02:54.868Z,34.92
2022-11-22T22:05:04.009Z,32.45
2022-11-22T22:07:29.530Z,34.58
2022-11-22T22:09:34.211Z,32.03
2022-11-22T22:11:41.839Z,31.27
2022-11-22T22:13:46.536Z,34.15
2022-11-22T22:15:50.880Z,34.35
2022-11-22T22:17:55.385Z,33.65
2022-11-22T22:20:03.146Z,35.08
2022-11-22T22:22:07.644Z,31.15
2022-11-22T22:24:13.044Z,30.90
2022-11-22T22:26:18.668Z,29.80
2022-11-22T22:28:24.203Z,32.40
2022-11-22T22:30:28.482Z,29.80
2022-11-22T22:32:32.796Z,30.00
2022-11-22T22:34:37.416Z,30.00
2022-11-22T22:36:43.345Z,30.63
2022-11-22T22:38:47.626Z,30.15
2022-11-22T22:40:54.975Z,31.52
2022-11-22T22:42:59.588Z,32.80
2022-11-22T22:45:05.207Z,29.98
2022-11-22T22:47:09.484Z,32.75
2022-11-22T22:49:13.764Z,31.23
2022-11-22T22:51:19.340Z,31.13
2022-11-22T22:53:27.902Z,29.90
2022-11-22T22:55:32.575Z,31.48
2022-11-22T22:57:37.065Z,31.08
2022-11-22T22:59:41.776Z,30.90
2022-11-22T23:01:46.112Z,28.90
2022-11-22T23:03:50.877Z,25.85
2022-11-22T23:05:56.625Z,31.05
2022-11-22T23:08:01.290Z,31.92
2022-11-22T23:10:08.419Z,27.50
2022-11-22T23:12:12.837Z,30.35
2022-11-22T23:14:23.039Z,30.40
2022-11-22T23:16:27.511Z,31.98
2022-11-22T23:18:32.101Z,32.10
2022-11-22T23:20:36.558Z,32.47
2022-11-22T23:22:40.868Z,32.65
2022-11-22T23:24:45.244Z,34.80
2022-11-22T23:26:50.981Z,31.25
2022-11-22T23:28:55.552Z,29.17
2022-11-22T23:31:05.940Z,31.88
2022-11-22T23:33:10.119Z,32.55
2022-11-22T23:35:14.440Z,28.75
2022-11-22T23:37:18.743Z,31.38
2022-11-22T23:39:23.469Z,31.58
2022-11-22T23:41:28.514Z,31.17
2022-11-22T23:43:34.263Z,28.08
2022-11-22T23:45:38.539Z,30.35
2022-11-22T23:47:42.729Z,32.42
2022-11-22T23:49:46.977Z,31.05
2022-11-22T23:51:51.859Z,28.40
2022-11-22T23:53:57.266Z,30.38
2022-11-22T23:56:06.507Z,30.50
2022-11-22T23:58:11.113Z,30.52
